sensor_id;sensor_type;location;lat;lon;timestamp;P1;P2;P0
86103;PMS3003;76727;51.216;17.394;2024-03-02T00:00:58;98.33;69.67;41.00
86103;PMS3003;76727;51.216;17.394;2024-03-02T00:04:21;97.67;75.67;47.33
86103;PMS3003;76727;51.216;17.394;2024-03-02T00:07:24;94.33;71.33;42.00
86103;PMS3003;76727;51.216;17.394;2024-03-02T00:10:27;98.00;72.00;43.00
86103;PMS3003;76727;51.216;17.394;2024-03-02T00:13:38;85.83;59.33;35.67
86103;PMS3003;76727;51.216;17.394;2024-03-02T00:16:41;97.33;69.33;42.00
86103;PMS3003;76727;51.216;17.394;2024-03-02T00:19:44;80.67;60.67;39.67
86103;PMS3003;76727;51.216;17.394;2024-03-02T00:22:47;93.33;68.33;41.33
86103;PMS3003;76727;51.216;17.394;2024-03-02T00:25:51;94.33;69.00;39.00
86103;PMS3003;76727;51.216;17.394;2024-03-02T00:28:56;101.00;73.33;44.33
86103;PMS3003;76727;51.216;17.394;2024-03-02T00:31:59;98.67;71.33;42.33
86103;PMS3003;76727;51.216;17.394;2024-03-02T00:35:04;98.33;72.33;42.33
86103;PMS3003;76727;51.216;17.394;2024-03-02T00:38:07;96.33;69.67;43.00
86103;PMS3003;76727;51.216;17.394;2024-03-02T00:41:14;92.33;70.00;42.67
86103;PMS3003;76727;51.216;17.394;2024-03-02T00:44:19;96.00;73.33;45.00
86103;PMS3003;76727;51.216;17.394;2024-03-02T00:47:27;95.00;70.33;42.00
86103;PMS3003;76727;51.216;17.394;2024-03-02T00:50:30;79.00;60.67;39.00
86103;PMS3003;76727;51.216;17.394;2024-03-02T00:53:33;88.00;66.33;39.00
86103;PMS3003;76727;51.216;17.394;2024-03-02T00:56:36;97.33;72.00;42.00
86103;PMS3003;76727;51.216;17.394;2024-03-02T00:59:40;78.67;63.00;39.33
86103;PMS3003;76727;51.216;17.394;2024-03-02T01:02:43;90.67;67.00;42.00
86103;PMS3003;76727;51.216;17.394;2024-03-02T01:05:46;87.00;63.33;35.33
86103;PMS3003;76727;51.216;17.394;2024-03-02T01:08:49;95.67;70.00;42.00
86103;PMS3003;76727;51.216;17.394;2024-03-02T01:11:54;92.67;69.00;40.00
86103;PMS3003;76727;51.216;17.394;2024-03-02T01:14:58;87.00;66.00;37.00
86103;PMS3003;76727;51.216;17.394;2024-03-02T01:18:02;76.33;61.00;37.67
86103;PMS3003;76727;51.216;17.394;2024-03-02T01:21:04;84.00;63.67;40.67
86103;PMS3003;76727;51.216;17.394;2024-03-02T01:24:07;89.33;66.00;42.00
86103;PMS3003;76727;51.216;17.394;2024-03-02T01:27:09;84.50;60.00;34.00
86103;PMS3003;76727;51.216;17.394;2024-03-02T01:30:14;89.33;66.00;39.67
86103;PMS3003;76727;51.216;17.394;2024-03-02T01:33:17;90.00;66.00;40.67
86103;PMS3003;76727;51.216;17.394;2024-03-02T01:36:20;83.33;58.67;37.67
86103;PMS3003;76727;51.216;17.394;2024-03-02T01:39:23;85.67;63.33;39.67
86103;PMS3003;76727;51.216;17.394;2024-03-02T01:42:26;82.00;63.33;39.00
86103;PMS3003;76727;51.216;17.394;2024-03-02T01:45:30;80.00;60.67;34.67
86103;PMS3003;76727;51.216;17.394;2024-03-02T01:48:34;82.67;65.00;38.33
86103;PMS3003;76727;51.216;17.394;2024-03-02T01:51:36;94.33;66.33;42.00
86103;PMS3003;76727;51.216;17.394;2024-03-02T01:54:39;83.33;57.00;34.67
86103;PMS3003;76727;51.216;17.394;2024-03-02T01:57:42;87.33;66.00;40.67
86103;PMS3003;76727;51.216;17.394;2024-03-02T02:00:47;84.33;57.33;39.00
86103;PMS3003;76727;51.216;17.394;2024-03-02T02:03:49;82.67;60.00;34.67
86103;PMS3003;76727;51.216;17.394;2024-03-02T02:06:52;83.67;65.00;37.33
86103;PMS3003;76727;51.216;17.394;2024-03-02T02:09:55;76.00;58.33;33.33
86103;PMS3003;76727;51.216;17.394;2024-03-02T02:12:58;94.33;67.33;41.33
86103;PMS3003;76727;51.216;17.394;2024-03-02T02:16:05;77.40;58.00;33.00
86103;PMS3003;76727;51.216;17.394;2024-03-02T02:19:09;76.00;61.67;36.00
86103;PMS3003;76727;51.216;17.394;2024-03-02T02:22:12;81.50;65.00;39.00
86103;PMS3003;76727;51.216;17.394;2024-03-02T02:25:15;79.67;57.67;34.00
86103;PMS3003;76727;51.216;17.394;2024-03-02T02:28:17;51.00;40.50;24.50
86103;PMS3003;76727;51.216;17.394;2024-03-02T02:31:20;61.75;43.50;21.25
86103;PMS3003;76727;51.216;17.394;2024-03-02T02:34:23;84.00;66.00;39.67
86103;PMS3003;76727;51.216;17.394;2024-03-02T02:37:28;85.00;60.67;38.33
86103;PMS3003;76727;51.216;17.394;2024-03-02T02:40:30;88.67;66.00;39.00
86103;PMS3003;76727;51.216;17.394;2024-03-02T02:43:33;84.00;63.67;39.33
86103;PMS3003;76727;51.216;17.394;2024-03-02T02:46:35;80.50;63.00;36.00
86103;PMS3003;76727;51.216;17.394;2024-03-02T02:49:38;86.33;66.00;35.33
86103;PMS3003;76727;51.216;17.394;2024-03-02T02:52:42;83.67;60.33;34.00
86103;PMS3003;76727;51.216;17.394;2024-03-02T02:55:46;78.33;58.00;36.00
86103;PMS3003;76727;51.216;17.394;2024-03-02T02:58:48;83.00;64.33;39.67
86103;PMS3003;76727;51.216;17.394;2024-03-02T03:01:51;79.33;56.00;33.67
86103;PMS3003;76727;51.216;17.394;2024-03-02T03:04:54;85.67;61.00;39.67
86103;PMS3003;76727;51.216;17.394;2024-03-02T03:07:57;79.00;62.00;39.00
86103;PMS3003;76727;51.216;17.394;2024-03-02T03:11:00;64.33;48.33;32.33
86103;PMS3003;76727;51.216;17.394;2024-03-02T03:14:03;87.33;65.33;35.33
86103;PMS3003;76727;51.216;17.394;2024-03-02T03:17:04;78.50;60.00;39.00
86103;PMS3003;76727;51.216;17.394;2024-03-02T03:20:07;67.67;40.67;31.00
86103;PMS3003;76727;51.216;17.394;2024-03-02T03:23:11;85.00;65.00;37.33
86103;PMS3003;76727;51.216;17.394;2024-03-02T03:26:15;79.33;55.67;33.33
86103;PMS3003;76727;51.216;17.394;2024-03-02T03:29:17;85.00;61.00;36.00
86103;PMS3003;76727;51.216;17.394;2024-03-02T03:32:19;38.67;19.00;0.00
86103;PMS3003;76727;51.216;17.394;2024-03-02T03:35:22;84.00;65.33;39.33
86103;PMS3003;76727;51.216;17.394;2024-03-02T03:38:25;69.00;58.00;36.00
86103;PMS3003;76727;51.216;17.394;2024-03-02T03:41:27;84.33;61.67;36.00
86103;PMS3003;76727;51.216;17.394;2024-03-02T03:44:30;84.00;62.33;35.33
86103;PMS3003;76727;51.216;17.394;2024-03-02T03:47:33;74.67;59.33;36.67
86103;PMS3003;76727;51.216;17.394;2024-03-02T03:50:36;81.67;63.67;40.00
86103;PMS3003;76727;51.216;17.394;2024-03-02T03:53:39;53.00;41.33;25.00
86103;PMS3003;76727;51.216;17.394;2024-03-02T03:56:42;82.33;57.33;34.00
86103;PMS3003;76727;51.216;17.394;2024-03-02T03:59:45;85.00;62.00;37.00
86103;PMS3003;76727;51.216;17.394;2024-03-02T04:02:48;73.00;57.33;33.33
86103;PMS3003;76727;51.216;17.394;2024-03-02T04:05:51;79.67;57.67;32.33
86103;PMS3003;76727;51.216;17.394;2024-03-02T04:08:55;84.00;59.33;36.00
86103;PMS3003;76727;51.216;17.394;2024-03-02T04:11:58;87.33;64.67;39.00
86103;PMS3003;76727;51.216;17.394;2024-03-02T04:15:00;83.00;64.00;40.00
86103;PMS3003;76727;51.216;17.394;2024-03-02T04:18:03;87.00;66.00;39.00
86103;PMS3003;76727;51.216;17.394;2024-03-02T04:21:06;85.00;64.00;37.67
86103;PMS3003;76727;51.216;17.394;2024-03-02T04:24:11;78.67;58.00;36.00
86103;PMS3003;76727;51.216;17.394;2024-03-02T04:27:13;83.33;61.00;34.00
86103;PMS3003;76727;51.216;17.394;2024-03-02T04:30:16;84.67;62.33;39.00
86103;PMS3003;76727;51.216;17.394;2024-03-02T04:33:19;85.33;61.67;37.33
86103;PMS3003;76727;51.216;17.394;2024-03-02T04:36:21;72.67;54.33;33.00
86103;PMS3003;76727;51.216;17.394;2024-03-02T04:39:25;74.33;55.67;32.33
86103;PMS3003;76727;51.216;17.394;2024-03-02T04:42:28;87.67;64.33;39.00
86103;PMS3003;76727;51.216;17.394;2024-03-02T04:45:29;65.50;56.00;36.00
86103;PMS3003;76727;51.216;17.394;2024-03-02T04:48:31;69.50;58.00;35.00
86103;PMS3003;76727;51.216;17.394;2024-03-02T04:51:34;84.33;64.00;36.00
86103;PMS3003;76727;51.216;17.394;2024-03-02T04:54:39;91.67;69.00;39.33
86103;PMS3003;76727;51.216;17.394;2024-03-02T04:57:41;79.00;60.50;36.00
86103;PMS3003;76727;51.216;17.394;2024-03-02T05:00:42;84.00;61.00;37.00
86103;PMS3003;76727;51.216;17.394;2024-03-02T05:03:45;85.00;64.00;36.00
86103;PMS3003;76727;51.216;17.394;2024-03-02T05:06:47;82.00;54.00;34.00
86103;PMS3003;76727;51.216;17.394;2024-03-02T05:09:52;87.33;62.33;37.33
86103;PMS3003;76727;51.216;17.394;2024-03-02T05:12:55;76.67;60.33;34.67
86103;PMS3003;76727;51.216;17.394;2024-03-02T05:15:57;60.00;39.00;24.33
86103;PMS3003;76727;51.216;17.394;2024-03-02T05:19:00;88.33;58.00;34.00
86103;PMS3003;76727;51.216;17.394;2024-03-02T05:22:03;72.33;47.33;33.00
86103;PMS3003;76727;51.216;17.394;2024-03-02T05:25:07;68.50;45.00;21.50
86103;PMS3003;76727;51.216;17.394;2024-03-02T05:28:10;74.33;58.00;36.00
86103;PMS3003;76727;51.216;17.394;2024-03-02T05:31:13;80.33;61.67;36.67
86103;PMS3003;76727;51.216;17.394;2024-03-02T05:34:17;79.67;60.33;34.67
86103;PMS3003;76727;51.216;17.394;2024-03-02T05:37:20;79.33;59.67;36.67
86103;PMS3003;76727;51.216;17.394;2024-03-02T05:40:23;72.00;56.00;33.00
86103;PMS3003;76727;51.216;17.394;2024-03-02T05:43:26;85.33;61.67;36.33
86103;PMS3003;76727;51.216;17.394;2024-03-02T05:46:28;77.00;55.67;34.67
86103;PMS3003;76727;51.216;17.394;2024-03-02T05:49:31;71.33;52.00;35.33
86103;PMS3003;76727;51.216;17.394;2024-03-02T05:52:34;76.00;58.67;34.00
86103;PMS3003;76727;51.216;17.394;2024-03-02T05:55:38;76.33;52.67;34.00
86103;PMS3003;76727;51.216;17.394;2024-03-02T05:58:41;85.33;64.67;37.33
86103;PMS3003;76727;51.216;17.394;2024-03-02T06:01:43;78.00;63.50;36.00
86103;PMS3003;76727;51.216;17.394;2024-03-02T06:04:47;84.00;63.00;36.00
86103;PMS3003;76727;51.216;17.394;2024-03-02T06:07:50;78.00;63.00;35.33
86103;PMS3003;76727;51.216;17.394;2024-03-02T06:10:53;77.00;58.00;36.00
86103;PMS3003;76727;51.216;17.394;2024-03-02T06:13:56;88.33;62.33;38.33
86103;PMS3003;76727;51.216;17.394;2024-03-02T06:16:59;77.00;60.00;33.00
86103;PMS3003;76727;51.216;17.394;2024-03-02T06:20:02;83.00;61.67;35.33
86103;PMS3003;76727;51.216;17.394;2024-03-02T06:23:04;85.67;63.33;36.67
86103;PMS3003;76727;51.216;17.394;2024-03-02T06:26:08;81.00;63.00;39.00
86103;PMS3003;76727;51.216;17.394;2024-03-02T06:29:11;79.00;58.67;36.00
86103;PMS3003;76727;51.216;17.394;2024-03-02T06:32:13;72.67;57.33;34.00
86103;PMS3003;76727;51.216;17.394;2024-03-02T06:35:16;78.33;57.33;34.00
86103;PMS3003;76727;51.216;17.394;2024-03-02T06:38:19;77.33;58.67;37.00
86103;PMS3003;76727;51.216;17.394;2024-03-02T06:41:23;77.00;61.67;36.33
86103;PMS3003;76727;51.216;17.394;2024-03-02T06:44:26;84.33;61.00;36.00
86103;PMS3003;76727;51.216;17.394;2024-03-02T06:47:28;66.67;50.67;33.00
86103;PMS3003;76727;51.216;17.394;2024-03-02T06:50:31;79.00;60.67;36.00
86103;PMS3003;76727;51.216;17.394;2024-03-02T06:53:34;70.67;57.00;35.33
86103;PMS3003;76727;51.216;17.394;2024-03-02T06:56:37;69.50;53.00;34.00
86103;PMS3003;76727;51.216;17.394;2024-03-02T06:59:40;75.33;55.67;34.00
86103;PMS3003;76727;51.216;17.394;2024-03-02T07:02:43;69.33;56.33;33.00
86103;PMS3003;76727;51.216;17.394;2024-03-02T07:05:45;59.00;52.00;33.00
86103;PMS3003;76727;51.216;17.394;2024-03-02T07:08:47;78.50;60.00;36.00
86103;PMS3003;76727;51.216;17.394;2024-03-02T07:11:50;75.50;57.50;36.00
86103;PMS3003;76727;51.216;17.394;2024-03-02T07:14:53;82.67;61.00;36.00
86103;PMS3003;76727;51.216;17.394;2024-03-02T07:17:54;63.50;47.00;24.00
86103;PMS3003;76727;51.216;17.394;2024-03-02T07:20:57;70.67;49.00;31.67
86103;PMS3003;76727;51.216;17.394;2024-03-02T07:23:59;78.67;60.33;39.00
86103;PMS3003;76727;51.216;17.394;2024-03-02T07:27:04;80.67;59.33;34.00
86103;PMS3003;76727;51.216;17.394;2024-03-02T07:30:06;72.00;55.50;31.50
86103;PMS3003;76727;51.216;17.394;2024-03-02T07:33:10;80.33;56.00;33.00
86103;PMS3003;76727;51.216;17.394;2024-03-02T07:36:12;82.67;60.67;36.00
86103;PMS3003;76727;51.216;17.394;2024-03-02T07:39:15;59.00;48.50;30.00
86103;PMS3003;76727;51.216;17.394;2024-03-02T07:42:18;80.00;58.50;35.00
86103;PMS3003;76727;51.216;17.394;2024-03-02T07:45:21;78.33;58.00;34.00
86103;PMS3003;76727;51.216;17.394;2024-03-02T07:48:24;82.00;58.67;34.33
86103;PMS3003;76727;51.216;17.394;2024-03-02T07:51:27;84.67;61.67;40.00
86103;PMS3003;76727;51.216;17.394;2024-03-02T07:54:30;83.67;64.00;40.33
86103;PMS3003;76727;51.216;17.394;2024-03-02T07:57:34;73.00;55.67;35.00
86103;PMS3003;76727;51.216;17.394;2024-03-02T08:00:38;76.67;57.33;37.67
86103;PMS3003;76727;51.216;17.394;2024-03-02T08:03:41;79.33;61.33;39.00
86103;PMS3003;76727;51.216;17.394;2024-03-02T08:06:45;83.67;61.33;38.33
86103;PMS3003;76727;51.216;17.394;2024-03-02T08:09:48;83.33;61.33;42.67
86103;PMS3003;76727;51.216;17.394;2024-03-02T08:12:52;70.33;58.33;41.00
86103;PMS3003;76727;51.216;17.394;2024-03-02T08:15:55;77.00;55.67;37.67
86103;PMS3003;76727;51.216;17.394;2024-03-02T08:18:57;88.33;64.67;41.00
86103;PMS3003;76727;51.216;17.394;2024-03-02T08:22:01;90.00;68.00;45.00
86103;PMS3003;76727;51.216;17.394;2024-03-02T08:25:04;99.00;82.00;49.33
86103;PMS3003;76727;51.216;17.394;2024-03-02T08:28:09;72.67;57.33;39.00
86103;PMS3003;76727;51.216;17.394;2024-03-02T08:31:11;93.00;68.00;43.00
86103;PMS3003;76727;51.216;17.394;2024-03-02T08:34:13;74.00;61.00;46.00
86103;PMS3003;76727;51.216;17.394;2024-03-02T08:37:16;88.33;63.33;43.00
86103;PMS3003;76727;51.216;17.394;2024-03-02T08:40:19;91.33;69.00;45.00
86103;PMS3003;76727;51.216;17.394;2024-03-02T08:43:23;62.33;49.00;31.33
86103;PMS3003;76727;51.216;17.394;2024-03-02T08:46:27;66.67;48.00;36.00
86103;PMS3003;76727;51.216;17.394;2024-03-02T08:49:30;65.33;46.67;33.33
86103;PMS3003;76727;51.216;17.394;2024-03-02T08:52:33;73.00;51.33;35.33
86103;PMS3003;76727;51.216;17.394;2024-03-02T08:55:34;62.00;52.50;33.00
86103;PMS3003;76727;51.216;17.394;2024-03-02T08:58:39;56.00;45.00;33.00
86103;PMS3003;76727;51.216;17.394;2024-03-02T09:01:41;57.33;44.67;33.00
86103;PMS3003;76727;51.216;17.394;2024-03-02T09:04:45;67.67;55.00;37.00
86103;PMS3003;76727;51.216;17.394;2024-03-02T09:07:47;61.67;53.00;35.33
86103;PMS3003;76727;51.216;17.394;2024-03-02T09:10:50;70.33;54.33;35.67
86103;PMS3003;76727;51.216;17.394;2024-03-02T09:13:54;61.00;47.33;32.00
86103;PMS3003;76727;51.216;17.394;2024-03-02T09:16:57;54.33;43.00;29.67
86103;PMS3003;76727;51.216;17.394;2024-03-02T09:19:59;62.50;51.00;37.00
86103;PMS3003;76727;51.216;17.394;2024-03-02T09:23:01;62.67;50.33;35.33
86103;PMS3003;76727;51.216;17.394;2024-03-02T09:26:04;69.67;48.00;32.67
86103;PMS3003;76727;51.216;17.394;2024-03-02T09:29:13;61.33;48.00;35.00
86103;PMS3003;76727;51.216;17.394;2024-03-02T09:32:15;67.33;54.00;36.00
86103;PMS3003;76727;51.216;17.394;2024-03-02T09:35:17;66.33;54.00;36.00
86103;PMS3003;76727;51.216;17.394;2024-03-02T09:38:20;73.67;52.33;35.00
86103;PMS3003;76727;51.216;17.394;2024-03-02T09:41:23;70.00;54.67;36.67
86103;PMS3003;76727;51.216;17.394;2024-03-02T09:44:28;66.33;53.00;36.00
86103;PMS3003;76727;51.216;17.394;2024-03-02T09:47:31;65.33;50.33;34.67
86103;PMS3003;76727;51.216;17.394;2024-03-02T09:50:33;54.67;44.67;31.00
86103;PMS3003;76727;51.216;17.394;2024-03-02T09:53:36;50.00;40.67;27.33
86103;PMS3003;76727;51.216;17.394;2024-03-02T09:56:38;61.67;52.33;35.67
86103;PMS3003;76727;51.216;17.394;2024-03-02T09:59:43;73.00;56.33;36.67
86103;PMS3003;76727;51.216;17.394;2024-03-02T10:02:45;66.33;49.00;30.67
86103;PMS3003;76727;51.216;17.394;2024-03-02T10:05:48;69.67;50.33;35.00
86103;PMS3003;76727;51.216;17.394;2024-03-02T10:08:51;69.00;53.33;37.00
86103;PMS3003;76727;51.216;17.394;2024-03-02T10:12:01;42.00;38.00;28.00
86103;PMS3003;76727;51.216;17.394;2024-03-02T10:15:08;55.67;46.00;33.00
86103;PMS3003;76727;51.216;17.394;2024-03-02T10:18:11;64.00;48.33;35.33
86103;PMS3003;76727;51.216;17.394;2024-03-02T10:21:15;53.00;45.33;32.33
86103;PMS3003;76727;51.216;17.394;2024-03-02T10:24:18;59.00;45.67;34.00
86103;PMS3003;76727;51.216;17.394;2024-03-02T10:27:23;53.00;44.00;30.67
86103;PMS3003;76727;51.216;17.394;2024-03-02T10:30:30;54.33;45.00;32.00
86103;PMS3003;76727;51.216;17.394;2024-03-02T10:33:32;49.33;41.00;30.67
86103;PMS3003;76727;51.216;17.394;2024-03-02T10:36:34;56.00;44.33;30.67
86103;PMS3003;76727;51.216;17.394;2024-03-02T10:39:39;54.33;43.00;30.00
86103;PMS3003;76727;51.216;17.394;2024-03-02T10:42:42;46.33;39.00;27.00
86103;PMS3003;76727;51.216;17.394;2024-03-02T10:45:49;59.00;44.33;30.00
86103;PMS3003;76727;51.216;17.394;2024-03-02T10:48:52;52.33;29.67;22.00
86103;PMS3003;76727;51.216;17.394;2024-03-02T10:51:54;58.33;47.33;31.00
86103;PMS3003;76727;51.216;17.394;2024-03-02T10:54:57;57.67;44.00;30.00
86103;PMS3003;76727;51.216;17.394;2024-03-02T10:58:00;65.00;50.00;32.00
86103;PMS3003;76727;51.216;17.394;2024-03-02T11:01:05;61.00;48.00;31.50
86103;PMS3003;76727;51.216;17.394;2024-03-02T11:04:10;63.00;53.00;35.00
86103;PMS3003;76727;51.216;17.394;2024-03-02T11:07:17;45.67;41.00;28.67
86103;PMS3003;76727;51.216;17.394;2024-03-02T11:10:21;48.67;40.00;26.67
86103;PMS3003;76727;51.216;17.394;2024-03-02T11:13:27;62.67;45.67;31.67
86103;PMS3003;76727;51.216;17.394;2024-03-02T11:16:34;36.33;30.00;19.33
86103;PMS3003;76727;51.216;17.394;2024-03-02T11:19:38;58.33;44.00;31.00
86103;PMS3003;76727;51.216;17.394;2024-03-02T11:22:42;44.67;37.33;25.33
86103;PMS3003;76727;51.216;17.394;2024-03-02T11:25:45;53.33;42.33;29.33
86103;PMS3003;76727;51.216;17.394;2024-03-02T11:28:47;37.33;37.00;27.00
86103;PMS3003;76727;51.216;17.394;2024-03-02T11:31:58;46.33;35.67;23.00
86103;PMS3003;76727;51.216;17.394;2024-03-02T11:35:01;45.33;37.00;26.67
86103;PMS3003;76727;51.216;17.394;2024-03-02T11:38:04;50.67;40.67;29.67
86103;PMS3003;76727;51.216;17.394;2024-03-02T11:41:08;58.25;45.75;31.00
86103;PMS3003;76727;51.216;17.394;2024-03-02T11:44:10;35.00;25.33;20.00
86103;PMS3003;76727;51.216;17.394;2024-03-02T11:47:14;41.33;35.67;27.00
86103;PMS3003;76727;51.216;17.394;2024-03-02T11:50:28;42.00;35.00;27.67
86103;PMS3003;76727;51.216;17.394;2024-03-02T11:53:31;38.67;28.67;23.33
86103;PMS3003;76727;51.216;17.394;2024-03-02T11:56:35;45.00;37.67;27.00
86103;PMS3003;76727;51.216;17.394;2024-03-02T11:59:37;42.00;35.67;24.67
86103;PMS3003;76727;51.216;17.394;2024-03-02T12:02:42;42.33;36.33;27.00
86103;PMS3003;76727;51.216;17.394;2024-03-02T12:05:46;32.67;22.00;20.17
86103;PMS3003;76727;51.216;17.394;2024-03-02T12:08:52;42.50;35.50;27.00
86103;PMS3003;76727;51.216;17.394;2024-03-02T12:12:04;27.00;27.00;17.00
86103;PMS3003;76727;51.216;17.394;2024-03-02T12:15:08;44.33;30.67;23.00
86103;PMS3003;76727;51.216;17.394;2024-03-02T12:18:12;40.33;35.00;27.00
86103;PMS3003;76727;51.216;17.394;2024-03-02T12:21:14;38.67;33.67;25.00
86103;PMS3003;76727;51.216;17.394;2024-03-02T12:24:17;46.00;38.33;27.00
86103;PMS3003;76727;51.216;17.394;2024-03-02T12:27:21;38.33;34.67;27.00
86103;PMS3003;76727;51.216;17.394;2024-03-02T12:30:23;51.33;40.33;28.00
86103;PMS3003;76727;51.216;17.394;2024-03-02T12:33:30;44.00;38.67;29.00
86103;PMS3003;76727;51.216;17.394;2024-03-02T12:36:36;47.67;35.67;27.67
86103;PMS3003;76727;51.216;17.394;2024-03-02T12:39:39;39.00;33.00;24.00
86103;PMS3003;76727;51.216;17.394;2024-03-02T12:42:42;50.00;37.67;27.00
86103;PMS3003;76727;51.216;17.394;2024-03-02T12:45:45;37.67;37.00;23.33
86103;PMS3003;76727;51.216;17.394;2024-03-02T12:48:50;47.67;35.67;24.00
86103;PMS3003;76727;51.216;17.394;2024-03-02T12:51:53;37.33;34.33;26.00
86103;PMS3003;76727;51.216;17.394;2024-03-02T12:54:56;46.33;35.00;27.00
86103;PMS3003;76727;51.216;17.394;2024-03-02T12:58:00;44.00;31.33;23.00
86103;PMS3003;76727;51.216;17.394;2024-03-02T13:01:05;43.33;37.33;27.67
86103;PMS3003;76727;51.216;17.394;2024-03-02T13:04:10;41.67;34.67;24.00
86103;PMS3003;76727;51.216;17.394;2024-03-02T13:07:13;40.00;38.33;28.00
86103;PMS3003;76727;51.216;17.394;2024-03-02T13:10:16;47.67;35.67;25.00
86103;PMS3003;76727;51.216;17.394;2024-03-02T13:13:19;38.67;32.33;21.67
86103;PMS3003;76727;51.216;17.394;2024-03-02T13:16:20;26.00;17.00;16.00
86103;PMS3003;76727;51.216;17.394;2024-03-02T13:19:24;36.33;27.67;20.33
86103;PMS3003;76727;51.216;17.394;2024-03-02T13:22:26;19.00;13.00;10.00
86103;PMS3003;76727;51.216;17.394;2024-03-02T13:25:29;35.00;30.00;23.00
86103;PMS3003;76727;51.216;17.394;2024-03-02T13:28:31;37.00;28.67;18.33
86103;PMS3003;76727;51.216;17.394;2024-03-02T13:31:33;42.50;30.00;23.00
86103;PMS3003;76727;51.216;17.394;2024-03-02T13:34:36;33.50;31.00;23.00
86103;PMS3003;76727;51.216;17.394;2024-03-02T13:37:38;35.67;32.67;23.67
86103;PMS3003;76727;51.216;17.394;2024-03-02T13:40:40;35.00;30.50;21.50
86103;PMS3003;76727;51.216;17.394;2024-03-02T13:43:43;42.00;32.00;24.67
86103;PMS3003;76727;51.216;17.394;2024-03-02T13:46:45;43.00;35.67;25.00
86103;PMS3003;76727;51.216;17.394;2024-03-02T13:49:49;44.67;32.67;24.67
86103;PMS3003;76727;51.216;17.394;2024-03-02T13:52:50;26.00;22.50;18.00
86103;PMS3003;76727;51.216;17.394;2024-03-02T13:55:52;32.00;28.00;23.00
86103;PMS3003;76727;51.216;17.394;2024-03-02T13:58:54;27.50;23.00;19.00
86103;PMS3003;76727;51.216;17.394;2024-03-02T14:01:57;35.33;30.33;23.00
86103;PMS3003;76727;51.216;17.394;2024-03-02T14:05:00;43.00;31.50;26.00
86103;PMS3003;76727;51.216;17.394;2024-03-02T14:08:03;38.67;35.67;27.00
86103;PMS3003;76727;51.216;17.394;2024-03-02T14:11:06;31.00;26.50;21.00
86103;PMS3003;76727;51.216;17.394;2024-03-02T14:14:08;33.33;31.67;25.33
86103;PMS3003;76727;51.216;17.394;2024-03-02T14:17:11;40.33;33.67;24.00
86103;PMS3003;76727;51.216;17.394;2024-03-02T14:20:15;44.00;32.67;24.00
86103;PMS3003;76727;51.216;17.394;2024-03-02T14:23:17;36.50;31.00;22.00
86103;PMS3003;76727;51.216;17.394;2024-03-02T14:26:20;35.00;30.67;21.00
86103;PMS3003;76727;51.216;17.394;2024-03-02T14:29:23;38.00;34.67;25.33
86103;PMS3003;76727;51.216;17.394;2024-03-02T14:32:25;35.00;33.67;24.67
86103;PMS3003;76727;51.216;17.394;2024-03-02T14:35:28;31.00;26.00;22.50
86103;PMS3003;76727;51.216;17.394;2024-03-02T14:38:30;36.00;26.00;22.00
86103;PMS3003;76727;51.216;17.394;2024-03-02T14:41:32;26.00;23.00;16.00
86103;PMS3003;76727;51.216;17.394;2024-03-02T14:44:35;40.00;37.00;26.67
86103;PMS3003;76727;51.216;17.394;2024-03-02T14:47:37;49.00;34.33;26.33
86103;PMS3003;76727;51.216;17.394;2024-03-02T14:50:40;44.00;34.50;25.50
86103;PMS3003;76727;51.216;17.394;2024-03-02T14:53:43;34.50;29.50;25.00
86103;PMS3003;76727;51.216;17.394;2024-03-02T14:56:46;47.00;36.33;27.67
86103;PMS3003;76727;51.216;17.394;2024-03-02T14:59:49;43.67;34.00;25.33
86103;PMS3003;76727;51.216;17.394;2024-03-02T15:02:52;40.33;35.00;25.67
86103;PMS3003;76727;51.216;17.394;2024-03-02T15:05:56;56.00;40.67;27.33
86103;PMS3003;76727;51.216;17.394;2024-03-02T15:08:59;50.67;39.33;28.33
86103;PMS3003;76727;51.216;17.394;2024-03-02T15:12:02;55.67;43.67;30.00
86103;PMS3003;76727;51.216;17.394;2024-03-02T15:15:05;42.33;38.67;27.33
86103;PMS3003;76727;51.216;17.394;2024-03-02T15:18:08;50.33;40.33;30.33
86103;PMS3003;76727;51.216;17.394;2024-03-02T15:21:13;60.00;41.33;29.00
86103;PMS3003;76727;51.216;17.394;2024-03-02T15:24:16;48.00;37.00;28.67
86103;PMS3003;76727;51.216;17.394;2024-03-02T15:27:19;60.00;46.00;32.00
86103;PMS3003;76727;51.216;17.394;2024-03-02T15:30:21;53.00;44.33;30.33
86103;PMS3003;76727;51.216;17.394;2024-03-02T15:33:24;40.33;38.33;28.00
86103;PMS3003;76727;51.216;17.394;2024-03-02T15:36:29;55.67;44.67;30.33
86103;PMS3003;76727;51.216;17.394;2024-03-02T15:39:32;64.00;53.00;34.33
86103;PMS3003;76727;51.216;17.394;2024-03-02T15:42:34;62.33;48.00;33.67
86103;PMS3003;76727;51.216;17.394;2024-03-02T15:45:37;70.67;52.00;38.00
86103;PMS3003;76727;51.216;17.394;2024-03-02T15:48:40;52.33;42.33;30.67
86103;PMS3003;76727;51.216;17.394;2024-03-02T15:51:45;56.00;46.00;32.00
86103;PMS3003;76727;51.216;17.394;2024-03-02T15:54:48;61.33;49.00;32.00
86103;PMS3003;76727;51.216;17.394;2024-03-02T15:57:51;60.00;46.00;33.00
86103;PMS3003;76727;51.216;17.394;2024-03-02T16:00:54;61.00;47.00;31.67
86103;PMS3003;76727;51.216;17.394;2024-03-02T16:03:56;58.00;47.00;32.00
86103;PMS3003;76727;51.216;17.394;2024-03-02T16:07:00;53.00;45.33;31.00
86103;PMS3003;76727;51.216;17.394;2024-03-02T16:10:03;33.50;30.00;20.00
86103;PMS3003;76727;51.216;17.394;2024-03-02T16:13:06;54.33;40.33;28.00
86103;PMS3003;76727;51.216;17.394;2024-03-02T16:16:08;47.33;38.67;28.00
86103;PMS3003;76727;51.216;17.394;2024-03-02T16:19:11;59.33;45.33;32.00
86103;PMS3003;76727;51.216;17.394;2024-03-02T16:22:13;40.50;30.00;21.00
86103;PMS3003;76727;51.216;17.394;2024-03-02T16:25:16;46.33;34.33;27.67
86103;PMS3003;76727;51.216;17.394;2024-03-02T16:28:19;56.00;42.33;29.33
86103;PMS3003;76727;51.216;17.394;2024-03-02T16:31:21;50.00;41.20;30.20
86103;PMS3003;76727;51.216;17.394;2024-03-02T16:34:24;72.33;56.33;40.00
86103;PMS3003;76727;51.216;17.394;2024-03-02T16:37:28;75.33;54.67;37.67
86103;PMS3003;76727;51.216;17.394;2024-03-02T16:40:31;74.00;54.00;37.00
86103;PMS3003;76727;51.216;17.394;2024-03-02T16:43:34;56.67;45.00;32.67
86103;PMS3003;76727;51.216;17.394;2024-03-02T16:46:37;55.33;45.67;34.00
86103;PMS3003;76727;51.216;17.394;2024-03-02T16:49:39;65.33;50.67;33.33
86103;PMS3003;76727;51.216;17.394;2024-03-02T16:52:44;56.33;46.67;32.67